ADDS METAR Data INFO
IDs: Format: Raw Decoded Include TAF

Data at: 0501 UTC 23 May 2017

KPRS 230455Z AUTO 04007G16KT 10SM CLR 25/15 A2992 RMK AO2 T02460154
KPRS 230435Z AUTO 05011KT 10SM CLR 25/15 A2991 RMK AO2 T02500151
KPRS 230415Z AUTO 06011G19KT 050V110 10SM CLR 25/15 A2991 RMK AO2 T02520150
KPRS 230355Z AUTO 06015G19KT 10SM CLR 26/13 A2990 RMK AO2 T02610127
KPRS 230335Z AUTO 04011G17KT 10SM CLR 27/13 A2989 RMK AO2 T02660130
KPRS 230315Z AUTO 06013G19KT 10SM CLR 27/14 A2988 RMK AO2 T02710144
KPRS 230255Z AUTO 06016G22KT 10SM CLR 27/15 A2988 RMK AO2 T02720150
KPRS 230235Z AUTO 04016G23KT 10SM CLR 28/14 A2988 RMK AO2 T02840141
KPRS 230215Z AUTO 06014G18KT 10SM CLR 30/12 A2987 RMK AO2 T02970115
KPRS 230155Z AUTO 01006KT 10SM CLR 32/05 A2986 RMK AO2 T03150050
KPRS 230135Z AUTO 01005KT 10SM CLR 32/05 A2985 RMK AO2 T03220047
KPRS 230115Z AUTO 36006G16KT 10SM CLR 33/05 A2984 RMK AO2 T03250045
KPRS 230055Z AUTO 35008KT 300V040 10SM CLR 34/04 A2984 RMK AO2 T03350043
KPRS 230035Z AUTO 29003KT 10SM CLR 34/05 A2984 RMK AO2 T03400050
KPRS 230015Z AUTO 24005KT 10SM CLR 34/04 A2984 RMK AO2 T03400041
KPRS 222355Z AUTO 23004KT 10SM CLR 34/06 A2984 RMK AO2 T03420057 10346 20263
KPRS 222335Z AUTO 23004KT 10SM CLR 33/05 A2984 RMK AO2 T03320051
KPRS 222315Z AUTO 17007KT 10SM CLR 35/06 A2984 RMK AO2 T03450058
KPRS 222255Z AUTO 19005KT 10SM CLR 34/07 A2985 RMK AO2 T03410068
KPRS 222235Z AUTO 21003KT 10SM CLR 34/08 A2986 RMK AO2 T03410081
KPRS 222215Z AUTO 14003KT 10SM CLR 34/08 A2987 RMK AO2 T03360082
KPRS 222155Z AUTO 20003KT 10SM CLR 33/08 A2988 RMK AO2 T03330084
KPRS 222135Z AUTO 22003KT 10SM CLR 33/08 A2988 RMK AO2 T03270084
KPRS 222115Z AUTO 18004KT 10SM CLR 32/10 A2990 RMK AO2 T03240098
KPRS 222055Z AUTO 21007KT 10SM CLR 32/12 A2991 RMK AO2 T03200116
KPRS 222035Z AUTO 11003KT 10SM CLR 31/11 A2993 RMK AO2 T03140113
KPRS 222015Z AUTO 01004KT 10SM CLR 31/13 A2994 RMK AO2 T03050134
KPRS 221955Z AUTO 26005KT 10SM CLR 31/12 A2995 RMK AO2 T03090122
KPRS 221935Z AUTO 00000KT 10SM CLR 30/14 A2996 RMK AO2 T03040135
KPRS 221915Z AUTO 00000KT 10SM CLR 29/14 A2997 RMK AO2 T02940141
KPRS 221855Z AUTO 00000KT 10SM CLR 28/15 A2998 RMK AO2 T02790147
KPRS 221835Z AUTO 21005KT 10SM CLR 28/15 A3000 RMK AO2 T02840152
KPRS 221815Z AUTO 15003KT 10SM CLR 27/15 A3001 RMK AO2 T02680151
KPRS 221755Z AUTO 29004KT 10SM CLR 26/15 A3002 RMK AO2 T02600149 10268 20165
KPRS 221735Z AUTO 00000KT 10SM CLR 26/15 A3003 RMK AO2 T02630153
KPRS 221715Z AUTO 00000KT 10SM CLR 25/15 A3004 RMK AO2 T02490150
KPRS 221655Z AUTO 00000KT 10SM CLR 25/15 A3004 RMK AO2 T02460148
KPRS 221635Z AUTO 00000KT 10SM CLR 24/15 A3004 RMK AO2 T02400150
KPRS 221615Z AUTO 20004KT 10SM CLR 23/15 A3005 RMK AO2 T02340149
KPRS 221555Z AUTO 20003KT 10SM CLR 23/15 A3005 RMK AO2 T02300148
KPRS 221535Z AUTO 00000KT 10SM CLR 22/15 A3006 RMK AO2 T02220147
KPRS 221515Z AUTO 09004KT 10SM CLR 22/15 A3006 RMK AO2 T02200147
KPRS 221455Z AUTO 12003KT 10SM CLR 21/15 A3006 RMK AO2 T02140146
KPRS 221435Z AUTO 13004KT 10SM CLR 21/15 A3006 RMK AO2 T02090145
KPRS 221415Z AUTO 09003KT 10SM CLR 21/15 A3007 RMK AO2 T02060145
KPRS 221355Z AUTO 05004KT 10SM CLR 20/15 A3007 RMK AO2 T02000145
KPRS 221335Z AUTO 02005KT 10SM CLR 19/15 A3007 RMK AO2 T01900145
KPRS 221315Z AUTO 03004KT 10SM CLR 18/14 A3007 RMK AO2 T01810143
KPRS 221255Z AUTO 02005KT 10SM CLR 17/14 A3006 RMK AO2 T01740142
KPRS 221235Z AUTO 02004KT 10SM CLR 17/14 A3006 RMK AO2 T01680142
KPRS 221215Z AUTO 04005KT 10SM CLR 17/14 A3006 RMK AO2 T01650141
KPRS 221155Z AUTO 04006KT 10SM CLR 17/14 A3006 RMK AO2 70011 T01650141 10191 20165
KPRS 221135Z AUTO 05006KT 10SM CLR 17/14 A3006 RMK AO2 T01670142
KPRS 221115Z AUTO 05006KT 10SM CLR 17/14 A3006 RMK AO2 T01700142
KPRS 221055Z AUTO 05008KT 10SM CLR 17/14 A3005 RMK AO2 T01700141
KPRS 221035Z AUTO 05008KT 10SM CLR 17/14 A3006 RMK AO2 T01710140
KPRS 221015Z AUTO 05006KT 10SM CLR 18/14 A3006 RMK AO2 T01750138
KPRS 220955Z AUTO 05005KT 10SM CLR 18/14 A3006 RMK AO2 T01750135
KPRS 220935Z AUTO 03004KT 10SM CLR 18/14 A3006 RMK AO2 T01760135
KPRS 220915Z AUTO 04003KT 10SM CLR 18/14 A3006 RMK AO2 T01750135
KPRS 220855Z AUTO 03003KT 10SM CLR 18/14 A3007 RMK AO2 T01750136
KPRS 220835Z AUTO 03005KT 10SM CLR 18/14 A3007 RMK AO2 T01780137
KPRS 220815Z AUTO 00000KT 10SM CLR 18/14 A3007 RMK AO2 T01790138
KPRS 220755Z AUTO 08003KT 10SM CLR 18/14 A3008 RMK AO2 T01810138
KPRS 220735Z AUTO 05004KT 10SM CLR 18/14 A3009 RMK AO2 T01830138
KPRS 220715Z AUTO 05004KT 10SM CLR 19/14 A3009 RMK AO2 T01860137
KPRS 220655Z AUTO 05006KT 10SM CLR 19/14 A3009 RMK AO2 T01880137
KPRS 220635Z AUTO 05005KT 10SM CLR 19/14 A3008 RMK AO2 T01900136
KPRS 220615Z AUTO 04006KT 10SM CLR 19/14 A3009 RMK AO2 T01900136
KPRS 220555Z AUTO 04007KT 10SM CLR 19/14 A3009 RMK AO2 T01910137 10252 20188 402660188
KPRS 220535Z AUTO 02006KT 10SM CLR 19/14 A3009 RMK AO2 T01910138
KPRS 220515Z AUTO 03009KT 10SM CLR 19/14 A3009 RMK AO2 T01910140
KPRS 220455Z AUTO 04008KT 10SM CLR 19/14 A3009 RMK AO2 T01920142
KPRS 220435Z AUTO 05010G16KT 10SM CLR 19/14 A3009 RMK AO2 T01930142
KPRS 220415Z AUTO 05011KT 10SM CLR 20/14 A3008 RMK AO2 T01960142
KPRS 220355Z AUTO 06014G21KT 10SM CLR 20/14 A3007 RMK AO2 T01970142
KPRS 220335Z AUTO 05010G19KT 10SM CLR 20/14 A3007 RMK AO2 T02000141
KPRS 220315Z AUTO 05010G17KT 10SM CLR 21/14 A3007 RMK AO2 T02050137
KPRS 220255Z AUTO 04010G19KT 10SM CLR 21/14 A3007 RMK AO2 T02060136
KPRS 220235Z AUTO 04014G18KT 10SM CLR 21/14 A3006 RMK AO2 T02100136
KPRS 220215Z AUTO 04014G20KT 10SM CLR 21/14 A3005 RMK AO2 T02130137
KPRS 220155Z AUTO 05011G20KT 10SM CLR 22/14 A3004 RMK AO2 T02150135
KPRS 220135Z AUTO 05015G23KT 10SM CLR 22/14 A3002 RMK AO2 T02210141
KPRS 220115Z AUTO 05015G22KT 10SM CLR 23/14 A3002 RMK AO2 T02270140
KPRS 220055Z AUTO 03014G18KT 10SM CLR 23/14 A3003 RMK AO2 T02330137
KPRS 220035Z AUTO 04011G18KT 10SM CLR 24/14 A3003 RMK AO2 T02360136
KPRS 220015Z AUTO 05013G17KT 10SM CLR 24/14 A3002 RMK AO2 LTG DSNT E T02440137
KPRS 212355Z AUTO 05015G20KT 10SM CLR 25/14 A3002 RMK AO2 T02530141 10266 20206
KPRS 212335Z AUTO 06013G18KT 10SM CLR 25/14 A3001 RMK AO2 T02500142
KPRS 212315Z AUTO 06016G21KT 10SM CLR 25/15 A3000 RMK AO2 T02540146
KPRS 212255Z AUTO 05014G19KT 10SM CLR 26/14 A3001 RMK AO2 T02590139
KPRS 212235Z AUTO 05013G22KT 10SM CLR 26/14 A3001 RMK AO2 T02620137
KPRS 212215Z AUTO 08014G20KT 10SM SCT041 27/14 A3001 RMK AO2 LTG DSNT W T02650135
KPRS 212155Z AUTO 07013G17KT 10SM SCT041 26/15 A3001 RMK AO2 T02630150
KPRS 212135Z AUTO 06008G15KT 10SM SCT120 26/14 A3002 RMK AO2 T02580144
KPRS 212115Z AUTO 06006KT 10SM SCT120 26/14 A3002 RMK AO2 T02580140
KPRS 212055Z AUTO 06006KT 10SM CLR 25/14 A3002 RMK AO2 T02520137
KPRS 212035Z AUTO 10007G19KT 080V140 10SM CLR 25/14 A3002 RMK AO2 T02450140
KPRS 212015Z AUTO 08011G14KT 10SM SCT120 25/14 A3002 RMK AO2 T02510141
KPRS 211955Z AUTO 10006KT 10SM SCT120 23/14 A3003 RMK AO2 T02330144
KPRS 211935Z AUTO 09004KT 10SM SCT120 22/15 A3004 RMK AO2 T02230148
KPRS 211915Z AUTO 18007KT 10SM SCT120 22/16 A3005 RMK AO2 LTG DSNT E T02160157
KPRS 211855Z AUTO 10005KT 10SM SCT055 SCT090 BKN110 21/16 A3005 RMK AO2 LTG DSNT E T02110156
KPRS 211835Z AUTO 06004KT 10SM SCT044 BKN090 OVC110 21/15 A3007 RMK AO2 LTG DSNT SE T02060152
KPRS 211815Z AUTO 19004KT 10SM -RA SCT034 BKN080 OVC095 21/15 A3008 RMK AO2 LTG DSNT SE T02100153
KPRS 211755Z AUTO 18004KT 7SM -RA SCT031 BKN090 OVC110 21/15 A3009 RMK AO2 LTG DSNT SE P0001 60011 T02070152 10226 20190
KPRS 211735Z AUTO 08008G16KT 10SM -RA SCT060 SCT085 BKN120 21/14 A3005 RMK AO2 LTG DSNT SE THRU SW T02110137
KPRS 211715Z AUTO 11013G21KT 10SM BKN120 22/14 A3006 RMK AO2 LTG DSNT S T02170142


Page loaded:  05:01 UTC  |   10:01 PM Pacific  |   11:01 PM Mountain  |   12:01 AM Central  |   01:01 AM Eastern

 

ADVISORIES

FORECASTS

FORECASTS

OBSERVATIONS

USER TOOLS

ABOUT US